createdAt,value
2018-02-23T00:01:38.804Z,94833.43
2018-02-23T00:04:08.414Z,94696.27
2018-02-23T00:06:35.032Z,94822.38
2018-02-23T00:09:01.591Z,94837.77
2018-02-23T00:11:28.245Z,94836.66
2018-02-23T00:13:54.838Z,94826.49
2018-02-23T00:16:21.412Z,94830.09
2018-02-23T00:18:48.015Z,94828.92
2018-02-23T00:21:14.577Z,94827.95
2018-02-23T02:11:02.530Z,94790.95
2018-02-23T02:13:29.138Z,94792.81
2018-02-23T02:15:55.700Z,94782.40
2018-02-23T02:18:22.343Z,94787.10
2018-02-23T02:20:48.959Z,94761.59
2018-02-23T02:23:15.521Z,94784.25
2018-02-23T02:25:42.091Z,94777.44
2018-02-23T02:28:08.657Z,94774.50
2018-02-23T02:30:35.306Z,94768.90
2018-02-23T02:33:01.920Z,94770.74
2018-02-23T02:35:28.567Z,94786.05
2018-02-23T02:37:55.169Z,94789.28
2018-02-23T02:40:21.788Z,94791.88
2018-02-23T02:42:48.336Z,94774.23
2018-02-23T02:45:14.941Z,94793.84
2018-02-23T02:47:41.538Z,94778.44
2018-02-23T02:50:08.147Z,94798.73
2018-02-23T02:52:34.710Z,94800.86
2018-02-23T02:55:01.328Z,94790.30
2018-02-23T02:57:27.970Z,94801.06
2018-02-23T02:59:54.649Z,94806.95
2018-02-23T03:02:21.286Z,94785.53
2018-02-23T03:04:47.885Z,94770.86
2018-02-23T03:07:14.517Z,94784.71
2018-02-23T03:09:41.129Z,94787.09
2018-02-23T03:12:07.748Z,94772.31
2018-02-23T03:14:34.353Z,94783.23
2018-02-23T03:17:01.064Z,94785.26
2018-02-23T03:21:54.187Z,94788.31
2018-02-23T03:24:20.799Z,94765.19
2018-02-23T03:26:47.399Z,94785.06
2018-02-23T03:29:13.965Z,94772.64
2018-02-23T03:31:40.534Z,94782.13
2018-02-23T03:34:07.241Z,94775.08
2018-02-23T03:36:33.854Z,94782.64
2018-02-23T03:39:00.426Z,94787.98
2018-02-23T03:41:27.029Z,94789.60
2018-02-23T03:43:53.642Z,94792.69
2018-02-23T03:46:20.321Z,94785.38
2018-02-23T03:48:46.890Z,94782.58
2018-02-23T03:51:13.486Z,94788.97
2018-02-23T03:53:40.089Z,94790.98
2018-02-23T03:56:06.691Z,94795.53
2018-02-23T03:58:33.293Z,94796.96
2018-02-23T04:00:59.940Z,94798.30
2018-02-23T04:03:26.517Z,94785.26
2018-02-23T04:05:53.082Z,94796.54
2018-02-23T04:08:19.690Z,94803.90
2018-02-23T04:10:46.270Z,94796.59
2018-02-23T04:13:12.936Z,94804.16
2018-02-23T04:15:39.539Z,94809.52
2018-02-23T04:18:06.325Z,94803.86
2018-02-23T04:20:32.964Z,94806.23
2018-02-23T04:22:59.541Z,94795.70
2018-02-23T04:25:26.100Z,94808.92
2018-02-23T04:27:52.714Z,94805.20
2018-02-23T04:30:19.294Z,94802.23
2018-02-23T04:32:45.920Z,94806.80
2018-02-23T04:35:12.590Z,94799.17
2018-02-23T04:37:39.216Z,94789.58
2018-02-23T04:40:05.893Z,94795.56
2018-02-23T04:42:32.459Z,94794.38
2018-02-23T04:44:59.023Z,94799.90
2018-02-23T04:47:25.590Z,94796.67
2018-02-23T04:49:52.199Z,94796.23
2018-02-23T04:52:18.764Z,94792.68
2018-02-23T04:54:45.327Z,94806.33
2018-02-23T04:57:11.898Z,94790.95
2018-02-23T04:59:38.516Z,94797.03
2018-02-23T05:02:05.113Z,94788.75
2018-02-23T05:04:31.812Z,94788.16
2018-02-23T05:06:58.419Z,94782.14
2018-02-23T05:09:24.976Z,94789.25
2018-02-23T05:11:51.554Z,94787.73
2018-02-23T05:14:18.160Z,94801.89
2018-02-23T05:16:44.738Z,94780.68
2018-02-23T05:19:11.345Z,94772.95
2018-02-23T05:21:37.939Z,94808.16
2018-02-23T05:24:04.692Z,94809.78
2018-02-23T05:26:31.231Z,94815.12
2018-02-23T05:28:57.896Z,94813.69
2018-02-23T05:31:24.467Z,94820.78
2018-02-23T05:33:51.102Z,94820.31
2018-02-23T05:36:17.670Z,94829.63
2018-02-23T05:38:44.233Z,94835.09
2018-02-23T05:41:10.810Z,94838.33
2018-02-23T05:43:37.424Z,94822.58
2018-02-23T05:46:03.991Z,94847.38
2018-02-23T05:48:30.557Z,94838.80
2018-02-23T05:50:57.191Z,94844.82
2018-02-23T05:53:23.800Z,94846.33
2018-02-23T05:55:50.440Z,94850.39
2018-02-23T05:58:17.004Z,94853.37
2018-02-23T06:00:43.590Z,94850.33
2018-02-23T06:03:10.168Z,94849.69
2018-02-23T06:05:36.773Z,94863.75
2018-02-23T06:08:03.329Z,94861.88
2018-02-23T06:10:29.943Z,94855.55
2018-02-23T06:12:56.631Z,94875.35
2018-02-23T06:15:23.196Z,94872.59
2018-02-23T06:17:49.766Z,94874.76
2018-02-23T06:20:16.334Z,94889.98
2018-02-23T06:22:42.941Z,94869.56
2018-02-23T06:25:09.580Z,94865.80
2018-02-23T06:27:36.180Z,94881.67
2018-02-23T06:30:02.822Z,94874.86
2018-02-23T06:32:29.422Z,94893.13
2018-02-23T06:34:56.213Z,94870.89
2018-02-23T06:37:22.778Z,94881.10
2018-02-23T06:39:49.358Z,94887.36
2018-02-23T06:42:15.931Z,94874.73
2018-02-23T06:44:42.606Z,94856.19
2018-02-23T06:47:09.187Z,94887.79
2018-02-23T06:49:35.798Z,94887.22
2018-02-23T06:52:02.331Z,94891.39
2018-02-23T06:54:28.982Z,94908.61
2018-02-23T06:56:55.568Z,94872.00
2018-02-23T06:59:22.182Z,94910.56
2018-02-23T07:01:48.920Z,94881.24
2018-02-23T07:04:15.437Z,94894.06
2018-02-23T07:06:42.045Z,94905.86
2018-02-23T07:09:08.758Z,94910.45
2018-02-23T07:11:35.374Z,94868.78
2018-02-23T07:14:01.979Z,94908.68
2018-02-23T07:16:28.589Z,94903.77
2018-02-23T07:18:55.165Z,94911.59
2018-02-23T07:21:21.816Z,94901.45
2018-02-23T07:23:48.371Z,94912.70
2018-02-23T07:26:14.958Z,94837.91
2018-02-23T07:28:41.589Z,94860.30
2018-02-23T07:31:08.160Z,94901.99
2018-02-23T07:33:34.829Z,94846.66
2018-02-23T07:36:01.496Z,94910.83
2018-02-23T07:38:28.160Z,94916.30
2018-02-23T07:40:54.727Z,94917.05
2018-02-23T07:43:21.751Z,94912.25
2018-02-23T07:45:48.398Z,94917.33
2018-02-23T07:48:14.957Z,94912.02
2018-02-23T07:50:41.580Z,94924.30
2018-02-23T07:53:08.231Z,94908.55
2018-02-23T07:55:34.788Z,94909.63
2018-02-23T07:58:01.353Z,94909.94
2018-02-23T08:00:27.953Z,94910.63
2018-02-23T08:02:54.573Z,94909.45
2018-02-23T08:05:21.213Z,94903.42
2018-02-23T08:07:47.839Z,94912.34
2018-02-23T08:10:14.441Z,94912.71
2018-02-23T08:12:41.133Z,94915.42
2018-02-23T08:15:07.765Z,94921.25
2018-02-23T08:17:34.376Z,94918.73
2018-02-23T08:20:01.006Z,94912.34
2018-02-23T08:22:27.637Z,94904.68
2018-02-23T08:24:54.206Z,94917.79
2018-02-23T08:27:20.857Z,94894.03
2018-02-23T08:29:47.462Z,94896.98
2018-02-23T08:32:14.069Z,94909.19
2018-02-23T08:34:40.724Z,94910.22
2018-02-23T08:37:07.281Z,94909.63
2018-02-23T08:39:34.008Z,94909.47
2018-02-23T08:42:00.592Z,94903.52
2018-02-23T08:44:27.306Z,94899.05
2018-02-23T08:46:53.884Z,94891.28
2018-02-23T08:49:20.818Z,94906.78
2018-02-23T08:51:47.369Z,94909.01
2018-02-23T08:54:14.039Z,94907.71
2018-02-23T08:56:40.899Z,94903.50
2018-02-23T08:59:07.483Z,94908.21
2018-02-23T09:01:34.534Z,94906.03
2018-02-23T09:04:01.341Z,94888.97
2018-02-23T09:06:28.114Z,94905.13
2018-02-23T09:08:54.698Z,94906.84
2018-02-23T09:11:21.399Z,94906.36
2018-02-23T09:13:48.002Z,94899.76
2018-02-23T09:16:14.729Z,94898.48
2018-02-23T09:18:41.369Z,94898.48
2018-02-23T09:21:07.918Z,94902.63
2018-02-23T09:23:34.501Z,94908.51
2018-02-23T09:26:01.100Z,94899.13
2018-02-23T09:28:27.705Z,94906.84
2018-02-23T09:30:54.339Z,94897.39
2018-02-23T09:33:20.914Z,94900.70
2018-02-23T09:35:47.485Z,94886.06
2018-02-23T09:38:14.100Z,94882.14
2018-02-23T09:40:40.807Z,94893.44
2018-02-23T09:43:07.369Z,94894.87
2018-02-23T09:45:33.976Z,94894.22
2018-02-23T09:48:00.704Z,94898.36
2018-02-23T09:50:27.295Z,94906.36
2018-02-23T09:52:53.995Z,94891.58
2018-02-23T09:55:20.548Z,94902.23
2018-02-23T09:57:47.181Z,94899.88
2018-02-23T10:00:13.826Z,94897.05
2018-02-23T10:02:40.411Z,94891.30
2018-02-23T10:05:07.029Z,94893.53
2018-02-23T10:07:33.600Z,94876.11
2018-02-23T10:10:00.268Z,94832.84
2018-02-23T10:12:26.830Z,94858.77
2018-02-23T10:14:53.474Z,94856.77
2018-02-23T10:17:20.117Z,94880.41
2018-02-23T10:19:46.688Z,94861.74
2018-02-23T10:22:13.271Z,94855.57
2018-02-23T10:24:39.872Z,94872.31
2018-02-23T10:27:06.505Z,94865.48
2018-02-23T10:29:33.074Z,94811.39
2018-02-23T10:31:59.676Z,94840.97
2018-02-23T10:34:45.229Z,94865.05
2018-02-23T10:37:11.813Z,94800.09
2018-02-23T10:39:38.715Z,94877.89
2018-02-23T10:42:05.338Z,94867.32
2018-02-23T10:44:31.906Z,94861.80
2018-02-23T10:46:58.482Z,94876.18
2018-02-23T10:49:25.202Z,94835.45
2018-02-23T10:51:51.877Z,94861.31
2018-02-23T10:54:18.437Z,94849.01
2018-02-23T10:56:45.015Z,94856.79
2018-02-23T10:59:11.604Z,94850.84
2018-02-23T11:01:38.546Z,94839.84
2018-02-23T11:04:05.154Z,94861.92
2018-02-23T11:06:31.800Z,94846.67
2018-02-23T11:08:58.401Z,94849.50
2018-02-23T11:11:25.022Z,94857.06
2018-02-23T11:13:51.592Z,94848.38
2018-02-23T11:16:19.172Z,94820.76
2018-02-23T11:18:45.755Z,94856.15
2018-02-23T11:21:12.361Z,94803.33
2018-02-23T11:23:38.975Z,94858.33
2018-02-23T11:26:05.595Z,94827.08
2018-02-23T11:28:32.168Z,94863.70
2018-02-23T11:30:58.762Z,94870.45
2018-02-23T11:33:25.406Z,94866.56
2018-02-23T11:35:52.027Z,94872.73
2018-02-23T11:38:18.622Z,94870.48
2018-02-23T11:40:45.281Z,94858.11
2018-02-23T11:43:12.011Z,94859.69
2018-02-23T11:45:38.612Z,94864.84
2018-02-23T11:48:05.176Z,94866.78
2018-02-23T11:50:31.813Z,94869.69
2018-02-23T11:52:58.516Z,94858.89
2018-02-23T11:55:25.394Z,94860.45
2018-02-23T11:57:52.025Z,94852.16
2018-02-23T12:00:18.725Z,94851.91
2018-02-23T12:02:45.350Z,94842.00
2018-02-23T12:05:12.056Z,94848.73
2018-02-23T12:07:38.634Z,94839.16
2018-02-23T12:10:05.246Z,94835.63
2018-02-23T12:12:31.861Z,94833.11
2018-02-23T12:14:58.485Z,94836.41
2018-02-23T12:17:25.095Z,94839.35
2018-02-23T12:19:51.690Z,94829.55
2018-02-23T12:22:18.311Z,94834.53
2018-02-23T12:24:44.916Z,94837.20
2018-02-23T12:27:11.536Z,94832.64
2018-02-23T12:29:38.210Z,94830.65
2018-02-23T12:32:04.901Z,94835.27
2018-02-23T12:34:31.500Z,94840.20
2018-02-23T12:36:58.369Z,94837.20
2018-02-23T12:39:24.983Z,94829.88
2018-02-23T12:41:51.553Z,94831.64
2018-02-23T12:44:18.256Z,94832.48
2018-02-23T12:46:45.818Z,94834.36
2018-02-23T12:49:12.415Z,94831.77
2018-02-23T12:51:39.006Z,94836.13
2018-02-23T12:54:05.586Z,94836.30
2018-02-23T12:56:32.247Z,94832.22
2018-02-23T12:58:58.860Z,94831.09
2018-02-23T13:01:26.443Z,94823.73
2018-02-23T13:03:53.096Z,94826.97
2018-02-23T13:06:19.724Z,94828.23
2018-02-23T13:08:46.448Z,94828.75
2018-02-23T13:11:13.038Z,94824.95
2018-02-23T13:13:39.615Z,94832.43
2018-02-23T13:16:06.272Z,94836.61
2018-02-23T13:18:32.832Z,94827.08
2018-02-23T13:20:59.581Z,94833.83
2018-02-23T13:23:26.149Z,94830.53
2018-02-23T13:25:52.813Z,94834.36
2018-02-23T13:28:19.421Z,94831.78
2018-02-23T13:30:47.020Z,94830.03
2018-02-23T13:33:14.678Z,94830.12
2018-02-23T13:35:41.314Z,94832.13
2018-02-23T13:38:07.884Z,94827.39
2018-02-23T13:40:34.447Z,94827.19
2018-02-23T13:43:01.040Z,94828.84
2018-02-23T13:45:27.612Z,94832.38
2018-02-23T13:47:54.194Z,94831.94
2018-02-23T13:50:20.787Z,94834.23
2018-02-23T13:52:47.350Z,94824.56
2018-02-23T13:55:13.955Z,94824.66
2018-02-23T13:57:40.524Z,94819.32
2018-02-23T14:00:07.154Z,94817.33
2018-02-23T14:02:33.872Z,94813.15
2018-02-23T14:05:00.442Z,94818.87
2018-02-23T14:07:27.054Z,94816.18
2018-02-23T14:09:53.708Z,94825.11
2018-02-23T14:12:20.322Z,94822.56
2018-02-23T14:14:46.929Z,94824.20
2018-02-23T14:17:13.566Z,94820.67
2018-02-23T14:19:40.434Z,94818.98
2018-02-23T14:22:07.006Z,94813.73
2018-02-23T14:24:33.613Z,94812.74
2018-02-23T14:27:00.205Z,94815.02
2018-02-23T14:29:26.789Z,94809.05
2018-02-23T14:31:53.359Z,94813.09
2018-02-23T14:34:19.929Z,94813.59
2018-02-23T14:36:46.501Z,94808.81
2018-02-23T14:39:13.087Z,94812.70
2018-02-23T14:41:39.690Z,94815.14
2018-02-23T14:44:06.273Z,94805.83
2018-02-23T14:46:32.933Z,94812.14
2018-02-23T14:48:59.587Z,94814.48
2018-02-23T14:51:26.120Z,94810.84
2018-02-23T14:53:52.742Z,94809.02
2018-02-23T14:56:19.319Z,94811.26
2018-02-23T14:58:45.900Z,94798.55
2018-02-23T15:01:12.553Z,94800.41
2018-02-23T15:03:39.145Z,94801.45
2018-02-23T15:06:05.733Z,94798.95
2018-02-23T15:08:32.364Z,94805.23
2018-02-23T15:10:58.935Z,94803.03
2018-02-23T15:13:25.541Z,94817.27
2018-02-23T15:15:52.113Z,94811.55
2018-02-23T15:18:18.692Z,94813.98
2018-02-23T15:20:45.303Z,94814.81
2018-02-23T15:23:11.867Z,94805.38
2018-02-23T15:25:38.425Z,94803.25
2018-02-23T15:28:05.122Z,94812.41
2018-02-23T15:30:31.702Z,94804.25
2018-02-23T15:32:58.277Z,94805.21
2018-02-23T15:35:24.840Z,94806.52
2018-02-23T15:37:51.537Z,94804.58
2018-02-23T15:40:18.145Z,94799.22
2018-02-23T15:42:44.715Z,94804.36
2018-02-23T15:45:11.287Z,94785.58
2018-02-23T15:47:37.918Z,94779.85
2018-02-23T15:50:04.508Z,94785.96
2018-02-23T15:52:31.106Z,94802.41
2018-02-23T15:54:57.684Z,94804.70
2018-02-23T15:57:24.252Z,94808.38
2018-02-23T15:59:50.879Z,94809.06
2018-02-23T16:02:17.455Z,94812.02
2018-02-23T16:04:44.018Z,94811.78
2018-02-23T16:07:10.621Z,94800.02
2018-02-23T16:09:37.188Z,94815.41
2018-02-23T16:12:03.971Z,94802.04
2018-02-23T16:14:30.581Z,94816.70
2018-02-23T16:16:57.135Z,94804.95
2018-02-23T16:19:23.697Z,94812.22
2018-02-23T16:21:50.310Z,94813.62
2018-02-23T16:24:16.882Z,94805.48
2018-02-23T16:26:43.549Z,94818.94
2018-02-23T16:29:10.196Z,94815.72
2018-02-23T16:31:36.691Z,94818.62
2018-02-23T16:34:03.288Z,94814.98
2018-02-23T16:36:29.860Z,94801.18
2018-02-23T16:38:56.475Z,94820.55
2018-02-23T16:41:23.068Z,94820.16
2018-02-23T16:43:49.629Z,94821.90
2018-02-23T16:46:16.198Z,94823.23
2018-02-23T16:48:42.757Z,94816.17
2018-02-23T16:51:09.322Z,94825.17
2018-02-23T16:53:35.921Z,94827.42
2018-02-23T16:56:02.529Z,94829.60
2018-02-23T16:58:29.096Z,94831.34
2018-02-23T17:00:55.660Z,94828.10
2018-02-23T17:03:22.282Z,94828.80
2018-02-23T17:05:48.863Z,94827.90
2018-02-23T17:08:15.425Z,94828.41
2018-02-23T17:10:41.994Z,94832.33
2018-02-23T17:13:08.561Z,94831.64
2018-02-23T17:15:35.132Z,94826.92
2018-02-23T17:18:01.753Z,94831.78
2018-02-23T17:20:28.315Z,94837.80
2018-02-23T17:22:54.885Z,94835.05
2018-02-23T17:25:21.464Z,94842.14
2018-02-23T17:27:48.091Z,94842.61
2018-02-23T17:30:14.694Z,94844.56
2018-02-23T17:32:41.321Z,94844.23
2018-02-23T17:35:07.953Z,94837.20
2018-02-23T17:37:34.563Z,94824.34
2018-02-23T17:40:01.200Z,94841.23
2018-02-23T17:42:27.832Z,94838.17
2018-02-23T17:44:54.393Z,94835.20
2018-02-23T17:47:21.005Z,94842.24
2018-02-23T17:49:47.565Z,94819.27
2018-02-23T17:52:14.178Z,94825.11
2018-02-23T17:54:40.737Z,94835.45
2018-02-23T17:57:07.340Z,94817.13
2018-02-23T17:59:33.936Z,94820.75
2018-02-23T18:02:00.568Z,94823.77
2018-02-23T18:04:27.136Z,94828.09
2018-02-23T18:06:53.743Z,94833.31
2018-02-23T18:09:20.308Z,94834.66
2018-02-23T18:11:46.924Z,94826.34
2018-02-23T18:14:13.485Z,94821.16
2018-02-23T18:16:40.099Z,94833.83
2018-02-23T18:19:06.658Z,94824.46
2018-02-23T18:21:33.300Z,94834.01
2018-02-23T18:23:59.881Z,94815.56
2018-02-23T18:26:26.503Z,94823.05
2018-02-23T18:28:53.111Z,94827.19
2018-02-23T18:31:19.716Z,94811.86
2018-02-23T18:33:46.288Z,94821.70
2018-02-23T18:36:12.893Z,94823.59
2018-02-23T18:38:39.455Z,94831.50
2018-02-23T18:41:06.062Z,94819.09
2018-02-23T18:43:32.682Z,94819.78
2018-02-23T18:45:59.264Z,94817.87
2018-02-23T18:48:25.850Z,94821.23
2018-02-23T18:50:52.415Z,94819.30
2018-02-23T18:53:19.027Z,94830.20
2018-02-23T18:55:45.587Z,94828.44
2018-02-23T18:58:12.151Z,94828.41
2018-02-23T19:00:38.809Z,94830.19
2018-02-23T19:03:05.370Z,94817.09
2018-02-23T19:05:31.955Z,94820.72
2018-02-23T19:07:58.532Z,94816.29
2018-02-23T19:10:25.140Z,94815.71
2018-02-23T19:12:51.731Z,94824.64
2018-02-23T19:15:18.350Z,94827.29
2018-02-23T19:17:44.933Z,94815.42
2018-02-23T19:20:11.520Z,94810.84
2018-02-23T19:22:38.127Z,94819.05
2018-02-23T19:25:04.729Z,94809.06
2018-02-23T19:27:31.330Z,94800.50
2018-02-23T19:29:57.947Z,94812.25
2018-02-23T19:32:24.534Z,94806.88
2018-02-23T19:34:51.151Z,94808.98
2018-02-23T19:37:17.719Z,94809.93
2018-02-23T19:39:44.290Z,94797.41
2018-02-23T19:42:10.898Z,94797.81
2018-02-23T19:44:37.518Z,94804.02
2018-02-23T19:47:04.089Z,94797.66
2018-02-23T19:49:30.661Z,94800.84
2018-02-23T19:51:57.242Z,94789.78
2018-02-23T19:54:23.864Z,94797.11
2018-02-23T19:56:50.439Z,94801.64
2018-02-23T19:59:17.117Z,94793.63
2018-02-23T20:01:43.674Z,94785.31
2018-02-23T20:04:10.267Z,94796.41
2018-02-23T20:06:36.901Z,94805.81
2018-02-23T20:09:03.462Z,94794.52
2018-02-23T20:11:30.025Z,94789.55
2018-02-23T20:13:56.633Z,94783.12
2018-02-23T20:16:23.242Z,94775.69
2018-02-23T20:18:49.848Z,94784.06
2018-02-23T20:21:16.441Z,94784.22
2018-02-23T20:23:43.002Z,94785.67
2018-02-23T20:26:09.613Z,94778.92
2018-02-23T20:28:36.161Z,94783.10
2018-02-23T20:31:02.729Z,94774.39
2018-02-23T20:33:29.295Z,94781.42
2018-02-23T20:35:55.903Z,94784.91
2018-02-23T20:38:22.462Z,94786.25
2018-02-23T20:40:49.098Z,94772.95
2018-02-23T20:43:15.664Z,94783.79
2018-02-23T20:45:42.278Z,94787.23
2018-02-23T20:48:08.841Z,94781.80
2018-02-23T20:50:35.408Z,94788.14
2018-02-23T20:53:01.998Z,94779.95
2018-02-23T20:55:28.624Z,94787.59
2018-02-23T20:57:55.186Z,94780.52
2018-02-23T21:00:21.800Z,94794.35
2018-02-23T21:02:48.396Z,94791.27
2018-02-23T21:05:14.986Z,94782.45
2018-02-23T21:07:41.575Z,94790.97
2018-02-23T21:10:08.137Z,94785.28
2018-02-23T21:12:34.708Z,94781.47
2018-02-23T21:15:01.290Z,94782.70
2018-02-23T21:17:27.897Z,94784.91
2018-02-23T21:19:54.476Z,94785.45
2018-02-23T21:22:21.022Z,94780.23
2018-02-23T21:24:47.589Z,94784.11
2018-02-23T21:27:14.205Z,94779.87
2018-02-23T21:29:40.781Z,94774.89
2018-02-23T21:32:07.377Z,94781.67
2018-02-23T21:34:33.944Z,94777.28
2018-02-23T21:37:00.539Z,94785.05
2018-02-23T21:39:27.152Z,94775.77
2018-02-23T21:41:53.729Z,94775.08
2018-02-23T21:44:20.309Z,94781.36
2018-02-23T21:46:46.916Z,94782.01
2018-02-23T21:49:13.484Z,94780.41
2018-02-23T21:51:40.053Z,94777.33
2018-02-23T21:54:06.612Z,94784.05
2018-02-23T21:56:33.182Z,94776.57
2018-02-23T21:58:59.751Z,94778.45
2018-02-23T22:01:26.343Z,94785.03
2018-02-23T22:03:52.950Z,94782.45
2018-02-23T22:06:19.513Z,94777.08
2018-02-23T22:08:46.189Z,94772.80
2018-02-23T22:11:12.864Z,94778.60
2018-02-23T22:13:39.516Z,94755.39
2018-02-23T22:16:06.079Z,94774.98
2018-02-23T22:18:32.646Z,94778.47
2018-02-23T22:20:59.216Z,94778.56
2018-02-23T22:23:25.796Z,94781.29
2018-02-23T22:25:52.374Z,94773.63
2018-02-23T22:28:18.973Z,94770.30
2018-02-23T22:30:45.589Z,94778.45
2018-02-23T22:33:12.205Z,94775.09
2018-02-23T22:35:38.760Z,94766.59
2018-02-23T22:38:05.320Z,94760.25
2018-02-23T22:40:31.932Z,94772.69
2018-02-23T22:42:58.491Z,94770.48
2018-02-23T22:45:25.145Z,94768.27
2018-02-23T22:47:51.755Z,94759.92
2018-02-23T22:50:18.332Z,94761.22
2018-02-23T22:52:44.945Z,94780.20
2018-02-23T22:55:11.518Z,94759.34
2018-02-23T22:57:38.083Z,94773.71
2018-02-23T23:00:04.655Z,94753.03
2018-02-23T23:02:31.221Z,94766.48
2018-02-23T23:04:57.816Z,94779.19
2018-02-23T23:07:24.430Z,94758.66
2018-02-23T23:09:50.998Z,94777.45
2018-02-23T23:12:17.568Z,94770.19
2018-02-23T23:14:44.155Z,94776.51
2018-02-23T23:17:10.746Z,94780.53
2018-02-23T23:19:37.305Z,94786.20
2018-02-23T23:22:03.917Z,94788.20
2018-02-23T23:24:30.488Z,94783.11
2018-02-23T23:26:57.063Z,94784.71
2018-02-23T23:29:23.646Z,94783.91
2018-02-23T23:31:50.206Z,94781.34
2018-02-23T23:34:16.804Z,94781.08
2018-02-23T23:36:43.377Z,94779.59
2018-02-23T23:39:09.977Z,94780.03
2018-02-23T23:41:36.562Z,94775.67
2018-02-23T23:44:03.127Z,94768.05
2018-02-23T23:46:29.807Z,94763.84
2018-02-23T23:48:56.373Z,94760.87
2018-02-23T23:51:22.942Z,94726.66
2018-02-23T23:53:49.514Z,94746.61
2018-02-23T23:56:16.088Z,94755.75
2018-02-23T23:58:42.696Z,94763.27
